sensor_id;sensor_type;location;lat;lon;timestamp;pressure;altitude;pressure_sealevel;temperature;humidity
6128;BME280;7073;42.672;23.256;2023-04-23T05:33:58;94419.97;;;9.81;100.00
6128;BME280;7073;42.672;23.256;2023-04-23T05:36:25;94432.75;;;10.76;97.49
6128;BME280;7073;42.672;23.256;2023-04-23T05:38:52;94440.13;;;11.58;93.04
6128;BME280;7073;42.672;23.256;2023-04-23T05:41:18;94447.34;;;11.56;92.15
6128;BME280;7073;42.672;23.256;2023-04-23T05:43:45;94439.56;;;12.04;88.86
6128;BME280;7073;42.672;23.256;2023-04-23T05:46:12;94410.91;;;11.86;88.04
6128;BME280;7073;42.672;23.256;2023-04-23T05:48:39;94446.66;;;12.15;86.68
6128;BME280;7073;42.672;23.256;2023-04-23T05:51:07;94442.84;;;12.00;87.26
6128;BME280;7073;42.672;23.256;2023-04-23T05:53:34;94448.44;;;12.45;85.73
6128;BME280;7073;42.672;23.256;2023-04-23T05:56:02;94455.25;;;11.68;86.96
6128;BME280;7073;42.672;23.256;2023-04-23T05:58:28;94459.78;;;12.39;83.75
6128;BME280;7073;42.672;23.256;2023-04-23T06:00:55;94456.16;;;12.40;83.16
6128;BME280;7073;42.672;23.256;2023-04-23T06:03:22;94448.66;;;12.43;84.21
6128;BME280;7073;42.672;23.256;2023-04-23T06:05:49;94445.38;;;12.48;84.51
6128;BME280;7073;42.672;23.256;2023-04-23T06:08:17;94441.41;;;11.86;84.63
6128;BME280;7073;42.672;23.256;2023-04-23T06:10:45;94450.56;;;12.36;84.74
6128;BME280;7073;42.672;23.256;2023-04-23T06:13:12;94447.94;;;12.36;84.97
6128;BME280;7073;42.672;23.256;2023-04-23T06:15:38;94427.16;;;12.30;84.91
6128;BME280;7073;42.672;23.256;2023-04-23T06:18:05;94441.88;;;12.65;83.11
6128;BME280;7073;42.672;23.256;2023-04-23T06:20:32;94451.81;;;13.10;80.66
6128;BME280;7073;42.672;23.256;2023-04-23T06:22:59;94450.22;;;13.20;79.69
6128;BME280;7073;42.672;23.256;2023-04-23T06:25:28;94446.09;;;13.01;79.89
6128;BME280;7073;42.672;23.256;2023-04-23T06:27:55;94446.25;;;13.18;78.80
6128;BME280;7073;42.672;23.256;2023-04-23T06:30:23;94449.78;;;13.23;77.96
6128;BME280;7073;42.672;23.256;2023-04-23T06:32:49;94450.41;;;13.65;76.67
6128;BME280;7073;42.672;23.256;2023-04-23T06:35:16;94440.09;;;13.35;78.16
6128;BME280;7073;42.672;23.256;2023-04-23T06:37:43;94440.53;;;13.44;78.95
6128;BME280;7073;42.672;23.256;2023-04-23T06:40:10;94443.03;;;13.39;79.88
6128;BME280;7073;42.672;23.256;2023-04-23T06:42:38;94439.72;;;13.55;75.41
6128;BME280;7073;42.672;23.256;2023-04-23T06:45:06;94445.81;;;13.72;76.00
6128;BME280;7073;42.672;23.256;2023-04-23T06:47:33;94442.41;;;14.12;75.06
6128;BME280;7073;42.672;23.256;2023-04-23T06:49:59;94445.41;;;14.32;73.18
6128;BME280;7073;42.672;23.256;2023-04-23T06:52:26;94447.34;;;13.96;74.78
6128;BME280;7073;42.672;23.256;2023-04-23T06:54:53;94444.47;;;14.54;73.13
6128;BME280;7073;42.672;23.256;2023-04-23T06:57:20;94437.59;;;13.80;76.11
6128;BME280;7073;42.672;23.256;2023-04-23T06:59:48;94439.00;;;14.56;72.29
6128;BME280;7073;42.672;23.256;2023-04-23T07:02:15;94446.03;;;14.67;71.27
6128;BME280;7073;42.672;23.256;2023-04-23T07:04:43;94447.09;;;14.38;71.07
6128;BME280;7073;42.672;23.256;2023-04-23T07:07:10;94439.16;;;14.33;72.60
6128;BME280;7073;42.672;23.256;2023-04-23T07:09:37;94446.47;;;15.14;69.90
6128;BME280;7073;42.672;23.256;2023-04-23T07:12:04;94448.63;;;15.17;69.08
6128;BME280;7073;42.672;23.256;2023-04-23T07:14:31;94449.44;;;15.56;66.80
6128;BME280;7073;42.672;23.256;2023-04-23T07:16:59;94442.66;;;15.60;64.09
6128;BME280;7073;42.672;23.256;2023-04-23T07:19:26;94451.34;;;15.60;64.51
6128;BME280;7073;42.672;23.256;2023-04-23T07:21:53;94445.91;;;15.67;63.69
6128;BME280;7073;42.672;23.256;2023-04-23T07:24:20;94445.28;;;15.60;64.79
6128;BME280;7073;42.672;23.256;2023-04-23T07:26:46;94445.28;;;15.60;64.52
6128;BME280;7073;42.672;23.256;2023-04-23T07:29:13;94445.03;;;15.83;62.84
6128;BME280;7073;42.672;23.256;2023-04-23T07:31:40;94446.16;;;15.65;64.46
6128;BME280;7073;42.672;23.256;2023-04-23T07:34:08;94448.03;;;15.70;63.31
6128;BME280;7073;42.672;23.256;2023-04-23T07:36:35;94441.22;;;16.17;63.23
6128;BME280;7073;42.672;23.256;2023-04-23T07:39:03;94451.56;;;16.50;62.10
6128;BME280;7073;42.672;23.256;2023-04-23T07:41:30;94449.25;;;16.86;58.67
6128;BME280;7073;42.672;23.256;2023-04-23T07:43:57;94442.16;;;15.24;63.62
6128;BME280;7073;42.672;23.256;2023-04-23T07:46:23;94445.28;;;15.81;63.25
6128;BME280;7073;42.672;23.256;2023-04-23T07:48:50;94449.97;;;16.23;62.05
6128;BME280;7073;42.672;23.256;2023-04-23T07:51:19;94442.03;;;16.71;60.24
6128;BME280;7073;42.672;23.256;2023-04-23T07:53:46;94445.56;;;16.07;59.76
6128;BME280;7073;42.672;23.256;2023-04-23T07:56:15;94442.84;;;16.72;59.27
6128;BME280;7073;42.672;23.256;2023-04-23T07:58:42;94445.94;;;16.95;58.12
6128;BME280;7073;42.672;23.256;2023-04-23T08:01:09;94450.78;;;16.77;57.20
6128;BME280;7073;42.672;23.256;2023-04-23T08:03:36;94442.19;;;16.91;59.10
6128;BME280;7073;42.672;23.256;2023-04-23T08:06:03;94446.94;;;17.26;57.24
6128;BME280;7073;42.672;23.256;2023-04-23T08:08:31;94441.94;;;17.25;57.28
6128;BME280;7073;42.672;23.256;2023-04-23T08:10:58;94441.81;;;17.51;55.35
6128;BME280;7073;42.672;23.256;2023-04-23T08:13:25;94440.50;;;17.12;55.91
6128;BME280;7073;42.672;23.256;2023-04-23T08:15:51;94438.72;;;16.86;57.03
6128;BME280;7073;42.672;23.256;2023-04-23T08:18:18;94435.53;;;17.57;56.57
6128;BME280;7073;42.672;23.256;2023-04-23T08:20:45;94440.50;;;18.01;55.67
6128;BME280;7073;42.672;23.256;2023-04-23T08:23:12;94444.78;;;18.27;53.63
6128;BME280;7073;42.672;23.256;2023-04-23T08:25:40;94443.00;;;18.53;51.45
6128;BME280;7073;42.672;23.256;2023-04-23T08:28:06;94433.53;;;16.59;56.43
6128;BME280;7073;42.672;23.256;2023-04-23T08:30:33;94437.66;;;17.60;55.27
6128;BME280;7073;42.672;23.256;2023-04-23T08:33:00;94430.19;;;17.99;52.99
6128;BME280;7073;42.672;23.256;2023-04-23T08:35:27;94426.47;;;17.85;53.86
6128;BME280;7073;42.672;23.256;2023-04-23T08:37:54;94433.84;;;17.88;53.06
6128;BME280;7073;42.672;23.256;2023-04-23T08:40:20;94424.94;;;17.52;53.67
6128;BME280;7073;42.672;23.256;2023-04-23T08:42:51;94417.81;;;17.48;54.50
6128;BME280;7073;42.672;23.256;2023-04-23T08:45:20;94398.47;;;17.74;53.28
6128;BME280;7073;42.672;23.256;2023-04-23T08:47:47;94419.81;;;16.89;54.00
6128;BME280;7073;42.672;23.256;2023-04-23T08:50:15;94416.41;;;17.25;55.26
6128;BME280;7073;42.672;23.256;2023-04-23T08:52:46;94419.97;;;18.18;52.95
6128;BME280;7073;42.672;23.256;2023-04-23T08:55:13;94421.03;;;18.27;52.86
6128;BME280;7073;42.672;23.256;2023-04-23T08:57:40;94416.28;;;18.14;52.17
6128;BME280;7073;42.672;23.256;2023-04-23T09:00:11;94409.50;;;17.61;54.36
6128;BME280;7073;42.672;23.256;2023-04-23T09:02:42;94412.47;;;17.80;52.27
6128;BME280;7073;42.672;23.256;2023-04-23T09:05:09;94409.63;;;17.96;52.30
6128;BME280;7073;42.672;23.256;2023-04-23T09:07:36;94411.88;;;18.60;49.67
6128;BME280;7073;42.672;23.256;2023-04-23T09:10:04;94406.66;;;17.73;52.32
6128;BME280;7073;42.672;23.256;2023-04-23T09:12:31;94403.59;;;18.06;51.48
6128;BME280;7073;42.672;23.256;2023-04-23T09:14:58;94396.84;;;18.70;50.83
6128;BME280;7073;42.672;23.256;2023-04-23T09:17:27;94411.63;;;18.56;48.96
6128;BME280;7073;42.672;23.256;2023-04-23T09:19:54;94402.66;;;18.92;47.77
6128;BME280;7073;42.672;23.256;2023-04-23T09:22:41;94396.31;;;18.83;49.74
6128;BME280;7073;42.672;23.256;2023-04-23T09:25:09;94409.53;;;18.93;47.31
6128;BME280;7073;42.672;23.256;2023-04-23T09:27:36;94402.91;;;19.01;48.40
6128;BME280;7073;42.672;23.256;2023-04-23T09:30:04;94397.72;;;19.85;47.23
6128;BME280;7073;42.672;23.256;2023-04-23T09:32:34;94392.81;;;19.48;46.99
6128;BME280;7073;42.672;23.256;2023-04-23T09:35:02;94406.00;;;20.17;46.57
6128;BME280;7073;42.672;23.256;2023-04-23T09:37:30;94401.56;;;20.52;46.13
6128;BME280;7073;42.672;23.256;2023-04-23T09:40:01;94402.34;;;20.57;44.99
6128;BME280;7073;42.672;23.256;2023-04-23T09:42:28;94358.28;;;20.38;46.02
6128;BME280;7073;42.672;23.256;2023-04-23T09:44:56;94392.56;;;20.09;45.74
6128;BME280;7073;42.672;23.256;2023-04-23T09:47:23;94379.09;;;19.21;47.98
6128;BME280;7073;42.672;23.256;2023-04-23T09:49:52;94379.34;;;19.40;47.91
6128;BME280;7073;42.672;23.256;2023-04-23T09:52:18;94375.09;;;19.54;46.63
6128;BME280;7073;42.672;23.256;2023-04-23T09:54:47;94376.88;;;20.66;46.38
6128;BME280;7073;42.672;23.256;2023-04-23T09:57:14;94380.09;;;20.92;44.93
6128;BME280;7073;42.672;23.256;2023-04-23T09:59:41;94381.91;;;21.78;42.86
6128;BME280;7073;42.672;23.256;2023-04-23T10:02:09;94378.41;;;21.59;42.51
6128;BME280;7073;42.672;23.256;2023-04-23T10:04:36;94375.44;;;20.79;42.76
6128;BME280;7073;42.672;23.256;2023-04-23T10:07:05;94374.28;;;21.71;41.15
6128;BME280;7073;42.672;23.256;2023-04-23T10:09:40;94377.50;;;20.09;42.70
6128;BME280;7073;42.672;23.256;2023-04-23T10:12:07;94365.28;;;20.91;43.13
6128;BME280;7073;42.672;23.256;2023-04-23T10:14:35;94368.22;;;21.42;41.04
6128;BME280;7073;42.672;23.256;2023-04-23T10:17:04;94346.66;;;20.34;43.91
6128;BME280;7073;42.672;23.256;2023-04-23T10:19:33;94355.34;;;20.39;41.90
6128;BME280;7073;42.672;23.256;2023-04-23T10:22:07;94341.22;;;20.54;42.16
6128;BME280;7073;42.672;23.256;2023-04-23T10:24:38;94345.53;;;21.36;40.53
6128;BME280;7073;42.672;23.256;2023-04-23T10:27:10;94334.88;;;20.50;41.95
6128;BME280;7073;42.672;23.256;2023-04-23T10:29:37;94318.84;;;20.70;40.75
6128;BME280;7073;42.672;23.256;2023-04-23T10:32:05;94332.59;;;21.29;40.40
6128;BME280;7073;42.672;23.256;2023-04-23T10:34:32;94344.59;;;21.93;40.04
6128;BME280;7073;42.672;23.256;2023-04-23T10:37:00;94331.59;;;22.10;39.41
6128;BME280;7073;42.672;23.256;2023-04-23T10:39:30;94338.41;;;22.72;39.08
6128;BME280;7073;42.672;23.256;2023-04-23T10:41:58;94335.88;;;22.94;39.73
6128;BME280;7073;42.672;23.256;2023-04-23T10:44:32;94325.44;;;22.84;38.57
6128;BME280;7073;42.672;23.256;2023-04-23T10:46:59;94331.22;;;21.08;38.89
6128;BME280;7073;42.672;23.256;2023-04-23T10:49:29;94322.91;;;21.44;39.32
6128;BME280;7073;42.672;23.256;2023-04-23T10:52:00;94315.47;;;21.88;38.59
6128;BME280;7073;42.672;23.256;2023-04-23T10:54:29;94310.41;;;22.42;38.59
6128;BME280;7073;42.672;23.256;2023-04-23T10:56:58;94296.16;;;22.38;38.75
6128;BME280;7073;42.672;23.256;2023-04-23T10:59:26;94300.28;;;22.95;38.29
6128;BME280;7073;42.672;23.256;2023-04-23T11:01:55;94298.81;;;23.03;36.20
6128;BME280;7073;42.672;23.256;2023-04-23T11:04:24;94304.00;;;22.81;36.86
6128;BME280;7073;42.672;23.256;2023-04-23T11:06:53;94301.22;;;23.72;35.41
6128;BME280;7073;42.672;23.256;2023-04-23T11:09:29;94295.31;;;21.45;37.21
6128;BME280;7073;42.672;23.256;2023-04-23T11:11:56;94295.25;;;23.07;36.58
6128;BME280;7073;42.672;23.256;2023-04-23T11:14:32;94294.31;;;24.21;33.82
6128;BME280;7073;42.672;23.256;2023-04-23T11:17:00;94291.06;;;23.61;33.68
6128;BME280;7073;42.672;23.256;2023-04-23T11:19:27;94266.59;;;23.86;33.29
6128;BME280;7073;42.672;23.256;2023-04-23T11:21:58;94279.06;;;22.77;32.98
6128;BME280;7073;42.672;23.256;2023-04-23T11:24:31;94271.47;;;23.93;32.14
6128;BME280;7073;42.672;23.256;2023-04-23T11:26:59;94279.59;;;23.74;32.61
6128;BME280;7073;42.672;23.256;2023-04-23T11:29:27;94273.50;;;22.78;32.28
6128;BME280;7073;42.672;23.256;2023-04-23T11:31:55;94261.59;;;23.17;31.84
6128;BME280;7073;42.672;23.256;2023-04-23T11:34:22;94270.38;;;23.17;32.28
6128;BME280;7073;42.672;23.256;2023-04-23T11:36:52;94251.47;;;24.31;32.09
6128;BME280;7073;42.672;23.256;2023-04-23T11:39:20;94257.91;;;24.61;29.79
6128;BME280;7073;42.672;23.256;2023-04-23T11:41:49;94253.38;;;25.14;29.76
6128;BME280;7073;42.672;23.256;2023-04-23T11:44:16;94239.44;;;24.64;28.34
6128;BME280;7073;42.672;23.256;2023-04-23T11:46:45;94231.84;;;25.11;28.76
6128;BME280;7073;42.672;23.256;2023-04-23T11:49:12;94236.13;;;24.59;29.87
6128;BME280;7073;42.672;23.256;2023-04-23T11:51:43;94231.31;;;24.03;29.77
6128;BME280;7073;42.672;23.256;2023-04-23T11:54:10;94230.00;;;23.42;29.21
6128;BME280;7073;42.672;23.256;2023-04-23T11:56:38;94224.72;;;23.78;29.10
6128;BME280;7073;42.672;23.256;2023-04-23T11:59:06;94224.09;;;24.92;29.01
6128;BME280;7073;42.672;23.256;2023-04-23T12:01:41;94223.66;;;24.23;28.49
6128;BME280;7073;42.672;23.256;2023-04-23T12:04:09;94226.44;;;23.96;27.63
6128;BME280;7073;42.672;23.256;2023-04-23T12:06:38;94227.22;;;23.47;26.61
6128;BME280;7073;42.672;23.256;2023-04-23T12:09:06;94221.72;;;23.17;28.35
6128;BME280;7073;42.672;23.256;2023-04-23T12:11:34;94212.81;;;23.76;27.91
6128;BME280;7073;42.672;23.256;2023-04-23T12:14:01;94216.28;;;23.35;28.30
6128;BME280;7073;42.672;23.256;2023-04-23T12:16:38;94207.22;;;22.22;29.24
6128;BME280;7073;42.672;23.256;2023-04-23T12:19:08;94201.84;;;22.09;29.61
6128;BME280;7073;42.672;23.256;2023-04-23T12:21:46;94209.56;;;22.56;30.12
6128;BME280;7073;42.672;23.256;2023-04-23T12:24:13;94189.13;;;21.92;31.58
6128;BME280;7073;42.672;23.256;2023-04-23T12:26:40;94196.47;;;22.14;32.51
6128;BME280;7073;42.672;23.256;2023-04-23T12:29:07;94189.03;;;22.29;31.71
6128;BME280;7073;42.672;23.256;2023-04-23T12:31:36;94192.69;;;22.01;31.49
6128;BME280;7073;42.672;23.256;2023-04-23T12:34:05;94190.34;;;22.45;31.01
6128;BME280;7073;42.672;23.256;2023-04-23T12:36:36;94187.25;;;22.25;30.80
6128;BME280;7073;42.672;23.256;2023-04-23T12:39:19;94193.06;;;22.27;31.47
6128;BME280;7073;42.672;23.256;2023-04-23T12:41:47;94189.69;;;21.52;31.01
6128;BME280;7073;42.672;23.256;2023-04-23T12:44:14;94179.56;;;21.16;32.67
6128;BME280;7073;42.672;23.256;2023-04-23T12:46:42;94176.34;;;21.19;33.04
6128;BME280;7073;42.672;23.256;2023-04-23T12:49:08;94172.88;;;20.77;33.10
6128;BME280;7073;42.672;23.256;2023-04-23T12:51:35;94173.16;;;20.51;34.47
6128;BME280;7073;42.672;23.256;2023-04-23T12:54:02;94182.50;;;20.91;33.52
6128;BME280;7073;42.672;23.256;2023-04-23T12:56:29;94174.91;;;20.61;33.77
6128;BME280;7073;42.672;23.256;2023-04-23T12:58:56;94173.84;;;21.09;33.60
6128;BME280;7073;42.672;23.256;2023-04-23T13:01:26;94173.69;;;21.19;33.72
6128;BME280;7073;42.672;23.256;2023-04-23T13:03:54;94172.84;;;21.61;31.95
6128;BME280;7073;42.672;23.256;2023-04-23T13:06:21;94179.28;;;21.74;32.57
6128;BME280;7073;42.672;23.256;2023-04-23T13:08:49;94175.97;;;21.07;31.82
6128;BME280;7073;42.672;23.256;2023-04-23T13:11:16;94172.06;;;21.61;31.34
6128;BME280;7073;42.672;23.256;2023-04-23T13:13:43;94164.88;;;22.44;35.44
6128;BME280;7073;42.672;23.256;2023-04-23T13:16:10;94169.81;;;23.46;33.28
6128;BME280;7073;42.672;23.256;2023-04-23T13:18:37;94159.50;;;23.89;34.34
6128;BME280;7073;42.672;23.256;2023-04-23T13:21:05;94163.94;;;24.16;30.01
6128;BME280;7073;42.672;23.256;2023-04-23T13:23:32;94174.44;;;24.43;30.99
6128;BME280;7073;42.672;23.256;2023-04-23T13:25:59;94168.91;;;24.09;30.14
6128;BME280;7073;42.672;23.256;2023-04-23T13:28:26;94160.97;;;23.95;29.19
6128;BME280;7073;42.672;23.256;2023-04-23T13:30:52;94172.50;;;24.57;28.27
6128;BME280;7073;42.672;23.256;2023-04-23T13:33:19;94159.66;;;24.99;28.65
6128;BME280;7073;42.672;23.256;2023-04-23T13:35:46;94126.28;;;23.87;28.68
6128;BME280;7073;42.672;23.256;2023-04-23T13:38:15;94154.22;;;25.21;27.90
6128;BME280;7073;42.672;23.256;2023-04-23T13:40:42;94156.44;;;25.27;26.36
6128;BME280;7073;42.672;23.256;2023-04-23T13:43:09;94137.22;;;25.73;27.61
6128;BME280;7073;42.672;23.256;2023-04-23T13:45:36;94164.53;;;24.13;29.08
6128;BME280;7073;42.672;23.256;2023-04-23T13:48:03;94144.44;;;24.07;30.56
6128;BME280;7073;42.672;23.256;2023-04-23T13:50:30;94145.75;;;24.09;29.14
6128;BME280;7073;42.672;23.256;2023-04-23T13:52:56;94154.69;;;22.92;29.64
6128;BME280;7073;42.672;23.256;2023-04-23T13:55:25;94153.06;;;21.91;30.54
6128;BME280;7073;42.672;23.256;2023-04-23T13:57:52;94154.41;;;22.07;30.11
6128;BME280;7073;42.672;23.256;2023-04-23T14:00:22;94148.75;;;21.39;30.62
6128;BME280;7073;42.672;23.256;2023-04-23T14:02:49;94147.94;;;21.44;30.86
6128;BME280;7073;42.672;23.256;2023-04-23T14:05:16;94152.03;;;21.36;32.51
6128;BME280;7073;42.672;23.256;2023-04-23T14:07:43;94136.78;;;22.11;30.34
6128;BME280;7073;42.672;23.256;2023-04-23T14:10:10;94148.16;;;22.58;29.57
6128;BME280;7073;42.672;23.256;2023-04-23T14:12:38;94142.69;;;22.81;30.40
6128;BME280;7073;42.672;23.256;2023-04-23T14:15:06;94141.75;;;23.40;30.24
6128;BME280;7073;42.672;23.256;2023-04-23T14:17:34;94143.34;;;24.61;27.43
6128;BME280;7073;42.672;23.256;2023-04-23T14:20:01;94132.91;;;21.71;30.51
6128;BME280;7073;42.672;23.256;2023-04-23T14:22:30;94134.66;;;23.36;29.87
6128;BME280;7073;42.672;23.256;2023-04-23T14:25:01;94124.38;;;24.01;28.81
6128;BME280;7073;42.672;23.256;2023-04-23T14:27:31;94150.28;;;24.09;28.77
6128;BME280;7073;42.672;23.256;2023-04-23T14:30:01;94139.78;;;24.65;28.31
6128;BME280;7073;42.672;23.256;2023-04-23T14:32:30;94146.19;;;25.04;27.81
6128;BME280;7073;42.672;23.256;2023-04-23T14:34:57;94131.97;;;24.77;28.11
6128;BME280;7073;42.672;23.256;2023-04-23T14:37:24;94140.56;;;24.35;28.21
6128;BME280;7073;42.672;23.256;2023-04-23T14:39:50;94123.31;;;23.44;29.33
6128;BME280;7073;42.672;23.256;2023-04-23T14:42:17;94136.25;;;23.23;29.30
6128;BME280;7073;42.672;23.256;2023-04-23T14:44:44;94134.28;;;22.33;30.04
6128;BME280;7073;42.672;23.256;2023-04-23T14:47:12;94137.28;;;22.13;31.00
6128;BME280;7073;42.672;23.256;2023-04-23T14:49:40;94139.81;;;22.05;31.48
6128;BME280;7073;42.672;23.256;2023-04-23T14:52:07;94132.97;;;21.85;31.76
6128;BME280;7073;42.672;23.256;2023-04-23T14:54:34;94142.56;;;21.81;31.33
6128;BME280;7073;42.672;23.256;2023-04-23T14:57:01;94130.19;;;21.58;31.74
6128;BME280;7073;42.672;23.256;2023-04-23T14:59:27;94145.03;;;21.59;31.79
6128;BME280;7073;42.672;23.256;2023-04-23T15:01:54;94135.78;;;21.93;30.75
6128;BME280;7073;42.672;23.256;2023-04-23T15:04:22;94122.63;;;21.51;32.94
6128;BME280;7073;42.672;23.256;2023-04-23T15:06:49;94114.59;;;21.19;32.07
6128;BME280;7073;42.672;23.256;2023-04-23T15:09:16;94117.81;;;21.53;31.87
6128;BME280;7073;42.672;23.256;2023-04-23T15:11:43;94117.81;;;21.34;32.29
6128;BME280;7073;42.672;23.256;2023-04-23T15:14:19;94122.94;;;21.82;31.09
6128;BME280;7073;42.672;23.256;2023-04-23T15:16:46;94118.06;;;21.89;31.58
6128;BME280;7073;42.672;23.256;2023-04-23T15:19:12;94110.81;;;21.76;33.17
6128;BME280;7073;42.672;23.256;2023-04-23T15:21:43;94105.88;;;21.18;34.28
6128;BME280;7073;42.672;23.256;2023-04-23T15:24:10;94082.97;;;21.09;34.77
6128;BME280;7073;42.672;23.256;2023-04-23T15:26:37;94101.50;;;21.27;35.36
6128;BME280;7073;42.672;23.256;2023-04-23T15:29:05;94105.56;;;21.01;35.78
6128;BME280;7073;42.672;23.256;2023-04-23T15:31:33;94100.22;;;21.06;35.51
6128;BME280;7073;42.672;23.256;2023-04-23T15:34:00;94106.50;;;21.10;35.08
6128;BME280;7073;42.672;23.256;2023-04-23T15:36:27;94093.84;;;20.65;35.34
6128;BME280;7073;42.672;23.256;2023-04-23T15:38:55;94104.22;;;20.61;35.56
6128;BME280;7073;42.672;23.256;2023-04-23T15:41:22;94103.53;;;20.27;35.51
6128;BME280;7073;42.672;23.256;2023-04-23T15:43:48;94097.63;;;20.06;36.25
6128;BME280;7073;42.672;23.256;2023-04-23T15:46:18;94090.38;;;19.93;36.63
6128;BME280;7073;42.672;23.256;2023-04-23T15:48:44;94090.47;;;20.36;36.03
6128;BME280;7073;42.672;23.256;2023-04-23T15:51:11;94099.13;;;20.41;35.83
6128;BME280;7073;42.672;23.256;2023-04-23T15:53:38;94102.78;;;20.22;35.13
6128;BME280;7073;42.672;23.256;2023-04-23T15:56:06;94099.09;;;19.89;35.65
6128;BME280;7073;42.672;23.256;2023-04-23T15:58:34;94083.94;;;19.99;35.61
6128;BME280;7073;42.672;23.256;2023-04-23T16:01:01;94067.66;;;19.87;35.68
6128;BME280;7073;42.672;23.256;2023-04-23T16:03:29;94095.38;;;20.19;35.20
6128;BME280;7073;42.672;23.256;2023-04-23T16:05:56;94082.06;;;20.29;43.64
6128;BME280;7073;42.672;23.256;2023-04-23T16:08:23;94093.94;;;20.55;35.89
6128;BME280;7073;42.672;23.256;2023-04-23T16:10:50;94093.38;;;20.58;35.42
6128;BME280;7073;42.672;23.256;2023-04-23T16:13:18;94095.50;;;20.08;34.93
6128;BME280;7073;42.672;23.256;2023-04-23T16:15:45;94084.97;;;19.46;35.09
6128;BME280;7073;42.672;23.256;2023-04-23T16:18:11;94086.81;;;19.02;36.73
6128;BME280;7073;42.672;23.256;2023-04-23T16:20:53;94081.91;;;19.24;36.68
6128;BME280;7073;42.672;23.256;2023-04-23T16:23:20;94073.44;;;19.27;36.09
6128;BME280;7073;42.672;23.256;2023-04-23T16:25:47;94082.31;;;19.46;36.21
6128;BME280;7073;42.672;23.256;2023-04-23T16:28:14;94065.81;;;19.59;35.83
6128;BME280;7073;42.672;23.256;2023-04-23T16:30:42;94061.78;;;19.67;35.84
6128;BME280;7073;42.672;23.256;2023-04-23T16:33:09;94075.47;;;19.40;36.49
6128;BME280;7073;42.672;23.256;2023-04-23T16:35:36;94080.47;;;20.04;35.66
6128;BME280;7073;42.672;23.256;2023-04-23T16:38:04;94079.28;;;20.44;35.44
6128;BME280;7073;42.672;23.256;2023-04-23T16:40:30;94076.19;;;20.98;36.24
6128;BME280;7073;42.672;23.256;2023-04-23T16:42:58;94075.28;;;21.07;35.68
6128;BME280;7073;42.672;23.256;2023-04-23T16:45:25;94089.78;;;21.15;36.16
6128;BME280;7073;42.672;23.256;2023-04-23T16:47:53;94093.41;;;21.38;35.54
6128;BME280;7073;42.672;23.256;2023-04-23T16:50:20;94087.09;;;20.96;36.51
6128;BME280;7073;42.672;23.256;2023-04-23T16:52:47;94082.06;;;20.29;37.20
6128;BME280;7073;42.672;23.256;2023-04-23T16:55:13;94070.63;;;20.09;38.47
6128;BME280;7073;42.672;23.256;2023-04-23T16:57:40;94076.59;;;20.20;38.30
6128;BME280;7073;42.672;23.256;2023-04-23T17:00:08;94076.34;;;19.93;38.79
6128;BME280;7073;42.672;23.256;2023-04-23T17:02:36;94074.00;;;19.86;39.17
6128;BME280;7073;42.672;23.256;2023-04-23T17:05:05;94060.63;;;19.44;40.13
6128;BME280;7073;42.672;23.256;2023-04-23T17:07:33;94066.53;;;18.92;41.00
6128;BME280;7073;42.672;23.256;2023-04-23T17:10:00;94057.25;;;18.46;42.18
6128;BME280;7073;42.672;23.256;2023-04-23T17:12:26;94073.81;;;18.66;42.66
6128;BME280;7073;42.672;23.256;2023-04-23T17:14:53;94061.63;;;18.06;44.02
6128;BME280;7073;42.672;23.256;2023-04-23T17:17:20;94072.72;;;17.83;44.18
6128;BME280;7073;42.672;23.256;2023-04-23T17:19:47;94067.22;;;17.59;45.58
6128;BME280;7073;42.672;23.256;2023-04-23T17:22:16;94082.50;;;17.57;45.94
6128;BME280;7073;42.672;23.256;2023-04-23T17:24:42;94075.13;;;17.39;46.69
6128;BME280;7073;42.672;23.256;2023-04-23T17:27:09;94082.50;;;17.37;45.89
6128;BME280;7073;42.672;23.256;2023-04-23T17:29:36;94068.25;;;16.88;47.16
6128;BME280;7073;42.672;23.256;2023-04-23T17:32:03;94078.19;;;16.76;47.74
6128;BME280;7073;42.672;23.256;2023-04-23T17:34:30;94083.25;;;16.92;47.38
6128;BME280;7073;42.672;23.256;2023-04-23T17:36:57;94090.78;;;16.59;48.08
6128;BME280;7073;42.672;23.256;2023-04-23T17:39:25;94089.78;;;16.70;47.69
6128;BME280;7073;42.672;23.256;2023-04-23T17:41:52;94086.66;;;16.83;46.99
6128;BME280;7073;42.672;23.256;2023-04-23T17:44:20;94092.47;;;17.00;47.27
6128;BME280;7073;42.672;23.256;2023-04-23T17:46:47;94084.56;;;17.05;47.64
6128;BME280;7073;42.672;23.256;2023-04-23T17:49:13;94100.94;;;17.17;47.19
6128;BME280;7073;42.672;23.256;2023-04-23T17:51:40;94098.22;;;16.82;48.20
6128;BME280;7073;42.672;23.256;2023-04-23T17:54:07;94098.22;;;16.92;48.33
6128;BME280;7073;42.672;23.256;2023-04-23T17:56:35;94102.66;;;16.76;48.97
6128;BME280;7073;42.672;23.256;2023-04-23T17:59:02;94106.13;;;16.92;48.46
6128;BME280;7073;42.672;23.256;2023-04-23T18:01:29;94102.19;;;16.89;48.64
6128;BME280;7073;42.672;23.256;2023-04-23T18:03:56;94088.41;;;16.05;50.02
6128;BME280;7073;42.672;23.256;2023-04-23T18:06:23;94101.22;;;16.43;49.12
6128;BME280;7073;42.672;23.256;2023-04-23T18:08:50;94121.03;;;16.61;50.02
6128;BME280;7073;42.672;23.256;2023-04-23T18:11:17;94072.16;;;16.13;49.31
6128;BME280;7073;42.672;23.256;2023-04-23T18:13:45;94118.97;;;16.16;50.39
6128;BME280;7073;42.672;23.256;2023-04-23T18:16:14;94121.69;;;15.89;52.23
6128;BME280;7073;42.672;23.256;2023-04-23T18:18:41;94133.09;;;15.37;53.70
6128;BME280;7073;42.672;23.256;2023-04-23T18:21:08;94132.47;;;15.51;52.54
6128;BME280;7073;42.672;23.256;2023-04-23T18:23:34;94127.44;;;15.50;52.98
6128;BME280;7073;42.672;23.256;2023-04-23T18:26:01;94133.22;;;15.25;53.97
6128;BME280;7073;42.672;23.256;2023-04-23T18:28:28;94117.72;;;14.92;55.13
6128;BME280;7073;42.672;23.256;2023-04-23T18:30:56;94148.66;;;14.68;55.99
6128;BME280;7073;42.672;23.256;2023-04-23T18:33:30;94130.88;;;14.97;55.46
6128;BME280;7073;42.672;23.256;2023-04-23T18:36:01;94143.06;;;15.08;55.28
6128;BME280;7073;42.672;23.256;2023-04-23T18:38:35;94148.31;;;14.21;57.65
6128;BME280;7073;42.672;23.256;2023-04-23T18:41:03;94144.09;;;14.20;58.49
6128;BME280;7073;42.672;23.256;2023-04-23T18:43:30;94157.59;;;14.29;59.10
6128;BME280;7073;42.672;23.256;2023-04-23T18:46:00;94131.31;;;14.24;58.54